Terminal Aerodrome Forecast
Issued by NWS

Home | Current Version | Previous Version | Text Only | Print | Product List | Glossary Off
Versions: 1 2 3 4 5 6 7 8 9 10 11 12 13

000
FTUS43 KICT 211128
TAFRSL
TAF
KRSL 211128Z 2112/2212 06017G22KT P6SM VCSH SCT015 OVC100
     FM211500 06017G22KT P6SM VCSH SCT020 OVC040
      TEMPO 2115/2118 5SM RA OVC017
     FM211800 06017G22KT 5SM RA OVC015
     FM220000 01017KT 5SM RA OVC008=

USA.gov is the U.S. government's official web portal to all federal, state and local government web resources and services.